This is the latest recevied weather packets stored in our database for station/object HP1COO-13. If no packets are shown the sender has not sent any weather packets the latest 10 day(s).
| Time | Temp. | Humidity | Pressure | Rain* | Wind** | Luminosity | Snow |
|---|---|---|---|---|---|---|---|
| 1777683232 | 26.11° C | 97% | 1006.1 hPa | 0.25 mm | - | - | - |
| 1777682992 | 26.11° C | 97% | 1006.1 hPa | 0.25 mm | - | - | - |
| 1777682872 | 26.11° C | 97% | 1006 hPa | 0.25 mm | - | - | - |
| 1777682658 | 26.11° C | 97% | 1005.9 hPa | 0.25 mm | - | - | - |
| 1777682025 | 26.11° C | 98% | 1005.9 hPa | 0 mm | - | - | - |
| 1777681392 | 26.11° C | 98% | 1005.5 hPa | 0 mm | - | - | - |
| 1777680759 | 26.11° C | 98% | 1005.6 hPa | 0.25 mm | - | - | - |
| 1777680126 | 26.11° C | 98% | 1005.9 hPa | 0 mm | - | - | - |
| 1777678860 | 25.56° C | 98% | 1005.7 hPa | 0.25 mm | - | - | - |
| 1777678227 | 25.56° C | 97% | 1005.7 hPa | 0.51 mm | - | - | - |
| 1777677594 | 25.56° C | 98% | 1005.6 hPa | 7.37 mm | - | - | - |
| 1777676961 | 25.56° C | 98% | 1005.4 hPa | 21.08 mm | - | - | - |
| 1777676328 | 25.56° C | 97% | 1005 hPa | 37.59 mm | - | - | - |
| 1777675695 | 25° C | 97% | 1005 hPa | 44.7 mm | - | - | - |
| 1777675062 | 25° C | 97% | 1004.9 hPa | 46.23 mm | - | - | - |
| 1777674430 | 25° C | 97% | 1004.5 hPa | 45.97 mm | - | - | - |
| 1777673796 | 25.56° C | 95% | 1004.8 hPa | 39.12 mm | - | - | - |
| 1777673163 | 26.11° C | 96% | 1004.8 hPa | 25.4 mm | - | - | - |
| 1777672530 | 26.67° C | 94% | 1004.4 hPa | 4.83 mm | - | - | - |
| 1777671897 | 27.78° C | 91% | 1004.5 hPa | 0.76 mm | - | - | - |
| 1777671264 | 29.44° C | 85% | 1004 hPa | 0 mm | - | - | - |
| 1777670631 | 30° C | 82% | 1004 hPa | 0 mm | - | - | - |
| 1777669998 | 30.56° C | 79% | 1003.8 hPa | 0 mm | - | - | - |
| 1777669365 | 30.56° C | 79% | 1003.6 hPa | 0 mm | - | - | - |
| 1777668732 | 30.56° C | 81% | 1003.7 hPa | 0 mm | - | - | - |
* Rain latest hour (hover to see other rain measurements)
** Current wind speed in m/s (hover to see current wind gust speed)